createdAt,value
2023-02-12T00:01:16.366Z,24.87
2023-02-12T00:03:43.712Z,24.77
2023-02-12T00:06:12.487Z,26.40
2023-02-12T00:08:41.051Z,25.03
2023-02-12T00:11:09.522Z,25.43
2023-02-12T00:13:36.783Z,25.13
2023-02-12T00:16:08.157Z,25.87
2023-02-12T00:18:35.512Z,24.73
2023-02-12T00:21:04.669Z,26.93
2023-02-12T00:23:31.866Z,25.60
2023-02-12T00:25:58.988Z,26.17
2023-02-12T00:28:26.361Z,26.40
2023-02-12T00:30:53.678Z,27.70
2023-02-12T00:33:20.866Z,26.37
2023-02-12T00:35:56.136Z,26.07
2023-02-12T00:38:23.540Z,25.70
2023-02-12T00:40:50.815Z,26.87
2023-02-12T00:43:17.963Z,25.77
2023-02-12T00:45:45.849Z,25.93
2023-02-12T00:48:13.642Z,25.00
2023-02-12T00:50:43.613Z,26.13
2023-02-12T00:53:10.743Z,27.60
2023-02-12T00:55:37.894Z,26.50
2023-02-12T00:58:05.036Z,26.50
2023-02-12T01:00:32.229Z,25.23
2023-02-12T01:02:59.352Z,27.37
2023-02-12T01:05:26.604Z,27.93
2023-02-12T01:07:54.563Z,25.80
2023-02-12T01:10:22.036Z,27.20
2023-02-12T01:12:49.392Z,28.10
2023-02-12T01:15:16.997Z,27.53
2023-02-12T01:17:44.474Z,27.73
2023-02-12T01:20:14.160Z,27.17
2023-02-12T01:22:41.314Z,26.77
2023-02-12T01:25:08.708Z,26.63
2023-02-12T01:27:36.271Z,26.20
2023-02-12T01:30:03.795Z,27.40
2023-02-12T01:32:30.961Z,26.00
2023-02-12T01:34:58.104Z,26.80
2023-02-12T01:37:25.201Z,26.90
2023-02-12T01:39:52.375Z,27.30
2023-02-12T01:42:19.717Z,27.57
2023-02-12T01:45:06.828Z,27.60
2023-02-12T01:47:33.943Z,27.00
2023-02-12T01:50:01.095Z,26.40
2023-02-12T01:52:30.759Z,26.53
2023-02-12T01:55:00.584Z,28.17
2023-02-12T01:57:29.314Z,26.73
2023-02-12T01:59:57.276Z,27.13
2023-02-12T02:02:24.740Z,27.80
2023-02-12T02:04:54.661Z,26.27
2023-02-12T02:07:21.802Z,28.30
2023-02-12T02:09:49.187Z,27.60
2023-02-12T02:12:35.194Z,27.57
2023-02-12T02:15:02.974Z,27.57
2023-02-12T02:17:45.353Z,29.33
2023-02-12T02:20:24.436Z,28.13
2023-02-12T02:23:08.768Z,27.23
2023-02-12T02:25:55.006Z,26.47
2023-02-12T02:28:22.330Z,25.27
2023-02-12T02:30:56.255Z,27.53
2023-02-12T02:33:33.097Z,27.77
2023-02-12T02:36:18.354Z,25.63
2023-02-12T02:38:51.176Z,24.10
2023-02-12T02:41:40.654Z,25.97
2023-02-12T02:44:11.484Z,24.83
2023-02-12T02:46:59.093Z,27.53
2023-02-12T02:49:28.319Z,26.47
2023-02-12T02:52:17.112Z,27.87
2023-02-12T02:54:46.491Z,26.63
2023-02-12T02:57:18.480Z,27.90
2023-02-12T02:59:49.077Z,27.80
2023-02-12T03:02:18.960Z,29.13
2023-02-12T03:05:06.312Z,29.50
2023-02-12T03:07:38.392Z,29.60
2023-02-12T03:10:05.567Z,29.00
2023-02-12T03:12:37.685Z,29.33
2023-02-12T03:15:13.797Z,29.17
2023-02-12T03:17:46.016Z,28.87
2023-02-12T03:20:16.460Z,29.27
2023-02-12T03:22:48.195Z,30.10
2023-02-12T03:25:22.230Z,29.47
2023-02-12T03:28:00.207Z,29.10
2023-02-12T03:30:33.495Z,27.90
2023-02-12T03:33:17.066Z,29.30
2023-02-12T03:36:07.176Z,28.60
2023-02-12T03:38:47.645Z,30.10
2023-02-12T03:41:14.745Z,31.23
2023-02-12T03:43:41.834Z,30.17
2023-02-12T03:46:15.987Z,31.37
2023-02-12T03:48:43.100Z,30.67
2023-02-12T03:51:25.037Z,31.23
2023-02-12T03:53:52.424Z,32.17
2023-02-12T03:56:25.160Z,31.50
2023-02-12T03:58:52.352Z,30.70
2023-02-12T04:01:19.580Z,28.90
2023-02-12T04:03:47.017Z,31.50
2023-02-12T04:06:40.422Z,32.30
2023-02-12T04:09:09.358Z,30.50
2023-02-12T04:11:53.797Z,30.60
2023-02-12T04:14:23.939Z,29.27
2023-02-12T04:16:51.277Z,30.60
2023-02-12T04:19:25.160Z,29.53
2023-02-12T04:21:58.312Z,32.27
2023-02-12T04:24:28.160Z,31.20
2023-02-12T04:26:55.219Z,30.43
2023-02-12T04:29:27.423Z,29.50
2023-02-12T04:32:26.865Z,27.67
2023-02-12T04:34:53.957Z,27.07
2023-02-12T04:37:35.585Z,28.13
2023-02-12T04:40:04.849Z,26.63
2023-02-12T04:42:31.952Z,28.40
2023-02-12T04:44:59.382Z,28.40
2023-02-12T04:47:26.733Z,30.33
2023-02-12T04:49:53.889Z,32.17
2023-02-12T04:52:21.011Z,30.87
2023-02-12T04:54:48.127Z,32.90
2023-02-12T04:57:15.256Z,31.97
2023-02-12T04:59:42.372Z,33.53
2023-02-12T05:02:09.526Z,34.97
2023-02-12T05:04:36.654Z,33.27
2023-02-12T05:07:03.781Z,32.50
2023-02-12T05:09:30.870Z,31.43
2023-02-12T05:11:58.000Z,31.77
2023-02-12T05:14:25.937Z,33.43
2023-02-12T05:16:53.062Z,32.27
2023-02-12T05:19:20.153Z,34.90
2023-02-12T05:21:47.354Z,32.67
2023-02-12T05:24:14.496Z,33.37
2023-02-12T05:26:41.830Z,34.57
2023-02-12T05:29:08.975Z,32.70
2023-02-12T05:31:36.347Z,32.97
2023-02-12T05:34:03.566Z,35.57
2023-02-12T05:36:30.728Z,31.57
2023-02-12T05:38:58.856Z,34.33
2023-02-12T05:41:26.433Z,33.97
2023-02-12T05:43:54.011Z,33.13
2023-02-12T05:46:22.006Z,35.53
2023-02-12T05:48:49.205Z,36.00
2023-02-12T05:51:18.018Z,35.40
2023-02-12T05:53:45.096Z,36.03
2023-02-12T05:56:23.391Z,35.47
2023-02-12T05:58:57.967Z,36.03
2023-02-12T06:01:27.039Z,36.87
2023-02-12T06:03:54.313Z,37.73
2023-02-12T06:06:21.517Z,34.43
2023-02-12T06:08:49.727Z,38.03
2023-02-12T06:11:17.618Z,35.77
2023-02-12T06:13:45.161Z,36.33
2023-02-12T06:16:17.365Z,35.53
2023-02-12T06:18:44.493Z,35.00
2023-02-12T06:21:11.594Z,35.40
2023-02-12T06:23:38.774Z,32.33
2023-02-12T06:26:05.883Z,33.10
2023-02-12T06:28:33.050Z,32.10
2023-02-12T06:31:00.246Z,33.03
2023-02-12T06:33:27.546Z,31.87
2023-02-12T06:35:54.880Z,32.33
2023-02-12T06:38:22.232Z,33.40
2023-02-12T06:40:49.404Z,31.87
2023-02-12T06:43:16.529Z,30.83
2023-02-12T06:45:43.686Z,29.93
2023-02-12T06:48:10.792Z,29.50
2023-02-12T06:50:37.925Z,28.67
2023-02-12T06:53:05.075Z,29.43
2023-02-12T06:55:32.160Z,28.27
2023-02-12T06:57:59.257Z,31.17
2023-02-12T07:00:26.389Z,29.10
2023-02-12T07:02:56.909Z,28.47
2023-02-12T07:05:24.400Z,30.27
2023-02-12T07:07:51.580Z,27.90
2023-02-12T07:10:19.569Z,29.70
2023-02-12T07:12:46.690Z,28.77
2023-02-12T07:15:14.860Z,28.90
2023-02-12T07:17:42.041Z,28.50
2023-02-12T07:20:09.379Z,27.63
2023-02-12T07:22:37.297Z,28.07
2023-02-12T07:25:04.527Z,27.40
2023-02-12T07:27:31.649Z,27.00
2023-02-12T07:29:58.801Z,26.40
2023-02-12T07:32:25.936Z,27.50
2023-02-12T07:34:53.053Z,25.50
2023-02-12T07:37:22.720Z,27.47
2023-02-12T07:39:50.215Z,28.17
2023-02-12T07:42:17.828Z,27.83
2023-02-12T07:44:45.853Z,26.67
2023-02-12T07:47:12.953Z,25.57
2023-02-12T07:49:40.068Z,27.33
2023-02-12T07:52:07.642Z,25.07
2023-02-12T07:54:34.760Z,25.93
2023-02-12T07:57:01.930Z,25.50
2023-02-12T07:59:29.110Z,25.93
2023-02-12T08:01:56.437Z,26.53
2023-02-12T08:04:25.130Z,26.30
2023-02-12T08:06:54.105Z,26.40
2023-02-12T08:09:26.567Z,28.17
2023-02-12T08:11:54.162Z,28.57
2023-02-12T08:14:22.387Z,26.87
2023-02-12T08:16:50.177Z,25.93
2023-02-12T08:19:21.713Z,26.73
2023-02-12T08:21:52.252Z,25.27
2023-02-12T08:24:19.650Z,25.17
2023-02-12T08:26:46.888Z,26.40
2023-02-12T08:29:15.789Z,25.83
2023-02-12T08:31:44.824Z,25.93
2023-02-12T08:34:19.414Z,24.30
2023-02-12T08:36:47.081Z,26.33
2023-02-12T08:39:16.498Z,27.07
2023-02-12T08:41:43.780Z,27.17
2023-02-12T08:44:11.227Z,29.43
2023-02-12T08:46:39.728Z,26.60
2023-02-12T08:49:12.760Z,27.50
2023-02-12T08:51:42.461Z,26.83
2023-02-12T08:54:11.579Z,26.47
2023-02-12T08:56:38.708Z,26.03
2023-02-12T08:59:07.334Z,24.10
2023-02-12T09:01:35.645Z,26.27
2023-02-12T09:04:02.842Z,24.87
2023-02-12T09:06:32.122Z,26.27
2023-02-12T09:08:59.342Z,27.07
2023-02-12T09:11:30.722Z,25.27
2023-02-12T09:14:08.027Z,26.93
2023-02-12T09:16:36.889Z,26.53
2023-02-12T09:19:04.802Z,27.23
2023-02-12T09:21:32.135Z,26.30
2023-02-12T09:23:59.417Z,26.80
2023-02-12T09:26:26.599Z,28.33
2023-02-12T09:28:54.482Z,27.47
2023-02-12T09:31:26.609Z,28.50
2023-02-12T09:33:55.351Z,28.60
2023-02-12T09:36:22.742Z,29.07
2023-02-12T09:38:50.162Z,31.30
2023-02-12T09:41:17.329Z,30.00
2023-02-12T09:43:44.473Z,31.23
2023-02-12T09:46:11.581Z,31.13
2023-02-12T09:48:41.492Z,32.60
2023-02-12T09:51:09.826Z,33.07
2023-02-12T09:53:45.860Z,31.93
2023-02-12T09:56:18.551Z,35.63
2023-02-12T09:58:57.790Z,36.30
2023-02-12T10:01:25.311Z,34.80
2023-02-12T10:03:52.964Z,32.17
2023-02-12T10:06:42.325Z,31.53
2023-02-12T10:09:12.288Z,31.40
2023-02-12T10:11:42.209Z,32.67
2023-02-12T10:14:28.133Z,35.43
2023-02-12T10:17:01.409Z,34.50
2023-02-12T10:19:43.631Z,33.63
2023-02-12T10:22:10.700Z,35.40
2023-02-12T10:24:40.584Z,30.60
2023-02-12T10:27:18.460Z,30.27
2023-02-12T10:29:46.572Z,31.27
2023-02-12T10:32:34.623Z,30.23
2023-02-12T10:35:02.188Z,33.23
2023-02-12T10:37:29.338Z,29.00
2023-02-12T10:39:58.923Z,29.93
2023-02-12T10:42:26.027Z,26.67
2023-02-12T10:44:53.198Z,29.77
2023-02-12T10:47:24.680Z,30.73
2023-02-12T10:49:58.756Z,29.60
2023-02-12T10:52:25.921Z,26.80
2023-02-12T10:54:53.124Z,26.70
2023-02-12T10:57:22.199Z,28.03
2023-02-12T10:59:51.024Z,28.30
2023-02-12T11:02:23.476Z,26.33
2023-02-12T11:04:51.381Z,27.33
2023-02-12T11:07:18.853Z,27.77
2023-02-12T11:09:46.933Z,27.77
2023-02-12T11:12:35.914Z,27.33
2023-02-12T11:15:23.481Z,26.73
2023-02-12T11:17:58.489Z,27.48
2023-02-12T11:20:30.892Z,25.30
2023-02-12T11:23:02.103Z,25.67
2023-02-12T11:25:31.782Z,25.17
2023-02-12T11:28:14.347Z,24.60
2023-02-12T11:30:51.768Z,23.33
2023-02-12T11:33:35.692Z,20.57
2023-02-12T11:36:08.490Z,22.10
2023-02-12T11:38:38.155Z,22.07
2023-02-12T11:41:08.529Z,20.87
2023-02-12T11:43:39.541Z,19.10
2023-02-12T11:46:08.783Z,19.27
2023-02-12T11:48:38.480Z,19.07
2023-02-12T11:51:09.078Z,17.70
2023-02-12T11:53:37.945Z,18.03
2023-02-12T11:56:06.645Z,17.60
2023-02-12T11:58:33.894Z,14.80
2023-02-12T12:01:19.186Z,10.17
2023-02-12T12:03:54.465Z,12.17
2023-02-12T12:06:24.640Z,13.90
2023-02-12T12:08:55.036Z,12.52
2023-02-12T12:11:24.912Z,13.45
2023-02-12T12:13:56.930Z,10.23
2023-02-12T12:17:01.600Z,13.50
2023-02-12T12:19:50.077Z,10.38
2023-02-12T12:22:29.123Z,14.18
2023-02-12T12:25:14.845Z,12.52
2023-02-12T12:28:03.757Z,13.05
2023-02-12T12:30:36.910Z,13.23
2023-02-12T12:33:11.237Z,13.05
2023-02-12T12:35:42.758Z,16.63
2023-02-12T12:38:32.459Z,14.63
2023-02-12T12:41:08.654Z,19.42
2023-02-12T12:43:38.653Z,15.23
2023-02-12T12:46:05.801Z,15.00
2023-02-12T12:48:51.833Z,9.20
2023-02-12T12:51:24.973Z,13.43
2023-02-12T12:53:55.154Z,13.90
2023-02-12T12:56:25.268Z,12.37
2023-02-12T12:59:10.942Z,10.13
2023-02-12T13:01:50.043Z,7.60
2023-02-12T13:04:33.310Z,13.20
2023-02-12T13:07:19.961Z,12.17
2023-02-12T13:09:54.330Z,14.77
2023-02-12T13:12:36.398Z,13.37
2023-02-12T13:15:09.264Z,14.90
2023-02-12T13:17:46.026Z,15.47
2023-02-12T13:20:18.330Z,14.23
2023-02-12T13:23:11.817Z,15.13
2023-02-12T13:25:38.917Z,13.73
2023-02-12T13:28:06.750Z,15.10
2023-02-12T13:30:45.919Z,14.23
2023-02-12T13:33:39.499Z,14.60
2023-02-12T13:36:06.947Z,15.83
2023-02-12T13:38:40.149Z,14.00
2023-02-12T13:41:08.542Z,13.57
2023-02-12T13:43:35.914Z,13.83
2023-02-12T13:46:11.189Z,12.33
2023-02-12T13:48:58.817Z,11.53
2023-02-12T13:51:31.986Z,12.30
2023-02-12T13:53:59.171Z,15.87
2023-02-12T13:56:41.102Z,15.13
2023-02-12T13:59:28.457Z,12.20
2023-02-12T14:01:55.656Z,12.47
2023-02-12T14:04:25.590Z,15.33
2023-02-12T14:07:12.691Z,14.47
2023-02-12T14:09:44.796Z,12.30
2023-02-12T14:12:16.810Z,12.37
2023-02-12T14:14:45.737Z,12.17
2023-02-12T14:17:30.966Z,13.07
2023-02-12T14:20:13.096Z,13.13
2023-02-12T14:22:43.854Z,10.57
2023-02-12T14:25:16.967Z,11.90
2023-02-12T14:27:48.987Z,7.60
2023-02-12T14:30:26.239Z,10.37
2023-02-12T14:32:58.058Z,11.00
2023-02-12T14:35:28.047Z,10.20
2023-02-12T14:37:56.312Z,10.50
2023-02-12T14:40:42.731Z,8.07
2023-02-12T14:43:26.385Z,6.87
2023-02-12T14:45:54.126Z,7.10
2023-02-12T14:48:43.354Z,6.80
2023-02-12T14:51:15.585Z,9.17
2023-02-12T14:53:42.804Z,8.37
2023-02-12T14:56:11.121Z,8.10
2023-02-12T14:58:38.499Z,6.63
2023-02-12T15:01:06.642Z,6.17
2023-02-12T15:03:49.596Z,5.43
2023-02-12T15:06:23.518Z,5.60
2023-02-12T15:09:02.802Z,5.40
2023-02-12T15:11:45.428Z,5.63
2023-02-12T15:14:18.407Z,6.20
2023-02-12T15:16:53.058Z,5.30
2023-02-12T15:19:20.162Z,7.33
2023-02-12T15:21:47.349Z,5.80
2023-02-12T15:24:22.369Z,8.80
2023-02-12T15:26:50.657Z,7.30
2023-02-12T15:29:29.973Z,6.53
2023-02-12T15:31:59.117Z,6.07
2023-02-12T15:34:28.729Z,5.00
2023-02-12T15:36:57.383Z,4.90
2023-02-12T15:39:25.122Z,7.13
2023-02-12T15:41:52.382Z,7.37
2023-02-12T15:44:19.458Z,7.27
2023-02-12T15:46:55.642Z,7.10
2023-02-12T15:49:26.639Z,7.43
2023-02-12T15:51:53.773Z,8.47
2023-02-12T15:54:21.225Z,9.83
2023-02-12T15:56:48.495Z,9.73
2023-02-12T15:59:22.931Z,10.40
2023-02-12T16:02:02.327Z,11.50
2023-02-12T16:04:31.024Z,11.33
2023-02-12T16:06:58.946Z,11.37
2023-02-12T16:09:29.267Z,9.47
2023-02-12T16:11:57.997Z,8.53
2023-02-12T16:14:31.436Z,9.87
2023-02-12T16:16:59.702Z,8.20
2023-02-12T16:19:28.112Z,12.77
2023-02-12T16:22:14.884Z,9.63
2023-02-12T16:24:50.024Z,9.90
2023-02-12T16:27:21.823Z,8.90
2023-02-12T16:29:50.819Z,8.40
2023-02-12T16:32:28.372Z,8.03
2023-02-12T16:34:59.791Z,8.37
2023-02-12T16:37:41.306Z,7.87
2023-02-12T16:40:20.133Z,220.13
2023-02-12T16:42:47.219Z,335.53
2023-02-12T16:45:34.717Z,238.10
2023-02-12T16:48:10.431Z,22.03
2023-02-12T16:50:39.571Z,9.53
2023-02-12T16:53:08.763Z,158.80
2023-02-12T16:55:36.755Z,104.43
2023-02-12T16:58:03.907Z,11.37
2023-02-12T17:00:31.097Z,10.37
2023-02-12T17:02:58.282Z,9.50
2023-02-12T17:05:25.402Z,9.30
2023-02-12T17:07:52.494Z,8.73
2023-02-12T17:10:19.572Z,9.03
2023-02-12T17:12:55.685Z,9.20
2023-02-12T17:15:29.145Z,10.37
2023-02-12T17:17:56.337Z,8.77
2023-02-12T17:20:23.463Z,9.80
2023-02-12T17:22:54.728Z,10.17
2023-02-12T17:25:21.871Z,9.50
2023-02-12T17:27:48.964Z,10.80
2023-02-12T17:30:18.017Z,11.73
2023-02-12T17:32:45.137Z,11.37
2023-02-12T17:35:12.343Z,11.00
2023-02-12T17:37:39.508Z,11.37
2023-02-12T17:40:07.138Z,12.13
2023-02-12T17:42:34.267Z,12.07
2023-02-12T17:45:01.402Z,11.90
2023-02-12T17:47:28.560Z,12.87
2023-02-12T17:49:56.171Z,12.33
2023-02-12T17:52:23.311Z,11.83
2023-02-12T17:54:50.468Z,11.33
2023-02-12T17:57:18.537Z,11.97
2023-02-12T17:59:45.689Z,10.70
2023-02-12T18:02:13.041Z,11.03
2023-02-12T18:04:40.381Z,10.80
2023-02-12T18:07:07.598Z,11.00
2023-02-12T18:09:34.741Z,11.80
2023-02-12T18:12:01.861Z,11.57
2023-02-12T18:14:29.028Z,11.63
2023-02-12T18:16:56.346Z,10.80
2023-02-12T18:19:23.466Z,11.53
2023-02-12T18:21:50.589Z,11.90
2023-02-12T18:24:17.707Z,11.70
2023-02-12T18:26:44.905Z,12.03
2023-02-12T18:29:12.059Z,11.93
2023-02-12T18:31:39.532Z,11.73
2023-02-12T18:34:08.333Z,10.93
2023-02-12T18:36:35.469Z,12.13
2023-02-12T18:39:02.745Z,11.60
2023-02-12T18:41:31.125Z,12.50
2023-02-12T18:43:58.842Z,12.53
2023-02-12T18:46:27.456Z,12.10
2023-02-12T18:48:55.118Z,12.83
2023-02-12T18:51:23.865Z,13.07
2023-02-12T18:53:54.994Z,13.70
2023-02-12T18:56:22.176Z,13.87
2023-02-12T18:58:49.275Z,14.77
2023-02-12T19:01:17.696Z,15.30
2023-02-12T19:03:45.203Z,14.77
2023-02-12T19:06:12.908Z,15.67
2023-02-12T19:08:40.188Z,16.00
2023-02-12T19:11:08.195Z,16.67
2023-02-12T19:13:35.388Z,17.07
2023-02-12T19:16:13.253Z,17.10
2023-02-12T19:18:40.850Z,16.17
2023-02-12T19:21:08.965Z,18.00
2023-02-12T19:23:36.094Z,16.30
2023-02-12T19:26:10.614Z,16.63
2023-02-12T19:28:41.145Z,18.27
2023-02-12T19:31:12.929Z,19.13
2023-02-12T19:33:41.728Z,18.63
2023-02-12T19:36:10.667Z,17.33
2023-02-12T19:38:38.267Z,19.00
2023-02-12T19:41:06.305Z,18.40
2023-02-12T19:43:33.714Z,18.07
2023-02-12T19:46:03.933Z,17.43
2023-02-12T19:48:31.294Z,14.70
2023-02-12T19:50:58.844Z,15.90
2023-02-12T19:53:26.259Z,17.13
2023-02-12T19:55:53.401Z,18.07
2023-02-12T19:58:20.505Z,16.73
2023-02-12T20:00:47.592Z,17.20
2023-02-12T20:03:14.764Z,16.03
2023-02-12T20:05:46.406Z,14.63
2023-02-12T20:08:14.205Z,17.13
2023-02-12T20:10:41.759Z,18.13
2023-02-12T20:13:09.279Z,18.23
2023-02-12T20:15:37.042Z,18.40
2023-02-12T20:18:08.311Z,17.87
2023-02-12T20:20:35.578Z,17.50
2023-02-12T20:23:02.797Z,16.70
2023-02-12T20:25:30.965Z,18.20
2023-02-12T20:27:58.217Z,17.20
2023-02-12T20:30:25.440Z,17.57
2023-02-12T20:32:52.588Z,17.73
2023-02-12T20:35:19.687Z,15.47
2023-02-12T20:37:46.896Z,17.77
2023-02-12T20:40:14.071Z,15.50
2023-02-12T20:42:41.200Z,16.70
2023-02-12T20:45:08.519Z,17.53
2023-02-12T20:47:35.616Z,16.57
2023-02-12T20:50:02.770Z,17.17
2023-02-12T20:52:30.202Z,16.83
2023-02-12T20:54:57.320Z,15.80
2023-02-12T20:57:24.389Z,16.60
2023-02-12T20:59:51.523Z,16.60
2023-02-12T21:02:18.670Z,17.70
2023-02-12T21:04:45.855Z,15.87
2023-02-12T21:07:12.962Z,16.60
2023-02-12T21:09:40.127Z,16.97
2023-02-12T21:12:07.302Z,16.13
2023-02-12T21:14:34.409Z,16.23
2023-02-12T21:17:01.554Z,17.93
2023-02-12T21:19:28.977Z,16.27
2023-02-12T21:21:56.201Z,17.93
2023-02-12T21:24:24.635Z,18.60
2023-02-12T21:26:52.561Z,18.83
2023-02-12T21:29:20.187Z,18.80
2023-02-12T21:31:48.503Z,17.47
2023-02-12T21:34:17.015Z,17.70
2023-02-12T21:36:45.368Z,18.43
2023-02-12T21:39:14.019Z,18.63
2023-02-12T21:41:41.858Z,19.47
2023-02-12T21:44:11.178Z,18.80
2023-02-12T21:46:38.642Z,18.70
2023-02-12T21:49:06.023Z,17.43
2023-02-12T21:51:34.738Z,17.63
2023-02-12T21:54:03.959Z,17.50
2023-02-12T21:56:31.137Z,18.43
2023-02-12T21:58:58.936Z,19.13
2023-02-12T22:01:27.877Z,17.93
2023-02-12T22:03:55.282Z,18.40
2023-02-12T22:06:23.523Z,18.43
2023-02-12T22:08:50.832Z,17.87
2023-02-12T22:11:18.220Z,18.77
2023-02-12T22:13:45.380Z,18.80
2023-02-12T22:16:14.115Z,18.67
2023-02-12T22:18:41.906Z,19.77
2023-02-12T22:21:12.971Z,20.20
2023-02-12T22:23:40.762Z,20.20
2023-02-12T22:26:09.284Z,19.40
2023-02-12T22:28:40.178Z,19.70
2023-02-12T22:31:08.058Z,19.57
2023-02-12T22:33:35.474Z,19.73
2023-02-12T22:36:06.403Z,21.07
2023-02-12T22:38:37.304Z,19.87
2023-02-12T22:41:05.070Z,19.37
2023-02-12T22:43:32.665Z,20.53
2023-02-12T22:45:59.810Z,20.47
2023-02-12T22:48:28.334Z,20.97
2023-02-12T22:50:56.439Z,20.57
2023-02-12T22:53:23.899Z,21.13
2023-02-12T22:55:51.596Z,19.70
2023-02-12T22:58:18.778Z,21.33
2023-02-12T23:00:45.931Z,23.20
2023-02-12T23:03:13.042Z,22.30
2023-02-12T23:05:40.407Z,22.67
2023-02-12T23:08:07.753Z,20.83
2023-02-12T23:10:34.854Z,20.80
2023-02-12T23:13:02.771Z,20.60
2023-02-12T23:15:30.597Z,20.17
2023-02-12T23:17:57.916Z,22.77
2023-02-12T23:20:25.025Z,21.50
2023-02-12T23:22:52.231Z,25.50
2023-02-12T23:25:19.380Z,25.70
2023-02-12T23:27:46.454Z,23.47
2023-02-12T23:30:13.830Z,23.77
2023-02-12T23:32:40.973Z,21.97
2023-02-12T23:35:08.187Z,22.43
2023-02-12T23:37:35.317Z,20.73
2023-02-12T23:40:02.466Z,20.77
2023-02-12T23:42:29.639Z,22.20
2023-02-12T23:44:57.615Z,22.60
2023-02-12T23:47:24.949Z,22.23
2023-02-12T23:49:52.074Z,21.87
2023-02-12T23:52:19.207Z,21.67
2023-02-12T23:54:46.346Z,21.30
2023-02-12T23:57:13.444Z,22.83
2023-02-12T23:59:40.528Z,22.90
